Bruk link Alternativ webside om du vil se statistikk,rapport,graf,analyse og mye mer.





Vårt webkamera mer informasjon My webcam


Kamera på Foreneset mer informasjon webcam on foreneset


Nedbørsradar  rain snow radar


Besøk vår andre værside:

Alternativ webside

iphone versjon

Nettbrett versjon

Foreneset
verstasjon



Nære METAR rapporter

     
ENZV - Stavanger
oppdatert: 18-05-2022 03:50
Klart  
Klart  
   Vind: SØ 7.7 m/s
Vind: SØ 7.7 m/s
Temperatur: 15°C
Duggpunkt: 1°C
Fuktighet: 39%
Barometer: 1020 hPa
Sikt: mer enn 10 km
Skydetaljer: Klart
ENZV 180150Z 13015KT CAVOK 15/01 Q1020
ENHD - Haugesund
oppdatert: 18-05-2022 03:50
Få Skyer  
Få Skyer  
   Vind: ØSØ 8.2 m/s
Vind: ØSØ 8.2 m/s
Temperatur: 14°C
Duggpunkt: 0°C
Fuktighet: 39%
Barometer: 1019 hPa
Skyer: Få Skyer
Sikt: mer enn 10 km
Skydetaljer: Få Skyer 4572 m
ENHD 180150Z AUTO 12016KT 9999 FEW150/// 14/00 Q1019
ENBR - Bergen
oppdatert: 18-05-2022 03:50
Overskyet  
Overskyet  
   Vind: varierer 1 m/s
Vind: varierer 1 m/s
Temperatur: 12°C
Duggpunkt: 4°C
Fuktighet: 58%
Barometer: 1019 hPa
Skyer: Overskyet
Sikt: mer enn 10 km
Skydetaljer: For det meste skyet 1889.8 m,
Overskyet 2987 m
ENBR 180150Z AUTO VRB02KT 9999 BKN062/// OVC098/// 12/04 Q1019 RMK WIND 1200FT 13022KT
ENCN - Kristiansand
oppdatert: 18-05-2022 03:50
For det meste skyet  
For det meste skyet  
   Vind: ØNØ 3.1 m/s
Vind: ØNØ 3.1 m/s
Temperatur: 6°C
Wind Chill: 4°C
Duggpunkt: 0°C
Fuktighet: 66%
Barometer: 1024 hPa
Skyer: For det meste skyet
Sikt: mer enn 10 km
Skydetaljer: Delvis Skyet 4572 m,
For det meste skyet 5486.4 m
ENCN 180150Z AUTO 06006KT 9999 SCT150/// BKN180/// 06/M00 Q1024
ENGM - Oslo
oppdatert: 18-05-2022 02:50
Ikke oppdatert
Klart  
Klart  
   Vind: varierer 1 m/s
Vind: varierer 1 m/s
Temperatur: 7°C
Duggpunkt: -2°C
Fuktighet: 53%
Barometer: 1024 hPa
Sikt: mer enn 10 km
Skydetaljer: Klart
ENGM 180050Z VRB02KT CAVOK 07/M02 Q1024
ENVA - Trondheim
oppdatert: 18-05-2022 03:50
Klart  
Klart  
   Vind: ØSØ 4.1 m/s
Vind: ØSØ 4.1 m/s
Temperatur: 3°C
Wind Chill: -1°C
Duggpunkt: -1°C
Fuktighet: 75%
Barometer: 1022 hPa
Skyer: Klart
Sikt: mer enn 10 km
Skydetaljer: Klart
ENVA 180150Z AUTO 12008KT 9999 NCD 03/M01 Q1022 RMK WIND 670FT 15006KT
    

Script utviklet av  Saratoga-weather.org Tilrettelagt for malen av  Weerstation Leuven

Du finner vår vær info også på:

UK Metoffice

European Weather Network

WeatherCloud

Weather Underground

Utstyr vi bruker:

Værstsjon
Davis VP2

Værprogram
Weather Display

Davis VP2

Weather Display